Time;durP1;ratioP1;P1;durP2;ratioP2;P2;SDS_P1;SDS_P2;PMS_P1;PMS_P2;Temp;Humidity;BMP_temperature;BMP_pressure;BME280_temperature;BME280_humidity;BME280_pressure;Samples;Min_cycle;Max_cycle;Signal;HPM_P1;HPM_P2
2021/12/10 00:01:26;;;;;;;7.65;3.88;;;3.40;99.90;;;;;;4977684;28;20018;-76
2021/12/10 00:03:56;;;;;;;6.25;2.78;;;3.30;99.90;;;;;;4983392;28;20026;-76
2021/12/10 00:06:25;;;;;;;7.15;2.35;;;3.20;99.90;;;;;;4989429;28;20023;-77
2021/12/10 00:08:59;;;;;;;6.32;4.53;;;3.20;99.90;;;;;;4987589;28;20030;-76
2021/12/10 00:11:50;;;;;;;8.07;2.70;;;3.10;99.90;;;;;;4985131;28;20018;-76
2021/12/10 00:14:16;;;;;;;;;;;3.10;99.90;;;;;;4984579;28;20061;-76
2021/12/10 00:16:42;;;;;;;6.00;2.03;;;3.10;99.90;;;;;;4978936;28;19968;-78
2021/12/10 00:21:47;;;;;;;6.40;2.33;;;2.90;99.90;;;;;;4983665;28;20069;-76
2021/12/10 00:24:15;;;;;;;3.83;1.70;;;2.80;99.90;;;;;;4982092;28;20018;-75
2021/12/10 00:26:41;;;;;;;4.60;1.70;;;2.80;99.90;;;;;;4983911;28;20023;-76
2021/12/10 00:29:08;;;;;;;12.40;3.25;;;2.80;99.90;;;;;;4983957;28;20041;-76
2021/12/10 00:31:46;;;;;;;3.30;1.98;;;2.80;99.90;;;;;;5009466;28;20488;-77
2021/12/10 00:34:34;;;;;;;6.55;2.70;;;2.90;99.90;;;;;;4987184;28;20024;-76
2021/12/10 00:37:04;;;;;;;4.15;2.03;;;2.90;99.90;;;;;;4990640;28;20133;-76
2021/12/10 00:39:34;;;;;;;3.67;2.00;;;2.80;99.90;;;;;;5006076;28;20097;-77
2021/12/10 00:42:03;;;;;;;4.75;1.90;;;2.80;99.90;;;;;;4982559;28;20065;-77
2021/12/10 00:44:28;;;;;;;7.43;1.98;;;2.70;99.90;;;;;;4985983;28;20033;-77
2021/12/10 00:46:54;;;;;;;6.53;2.75;;;2.60;99.90;;;;;;4991738;28;20022;-76
2021/12/10 00:49:20;;;;;;;7.00;2.58;;;2.60;99.90;;;;;;4996744;28;20018;-76
2021/12/10 00:51:45;;;;;;;4.38;2.10;;;2.60;99.90;;;;;;4985618;28;20054;-78
2021/12/10 00:54:12;;;;;;;4.10;1.70;;;2.60;99.90;;;;;;4989850;28;20034;-76
2021/12/10 00:56:41;;;;;;;5.97;2.15;;;2.50;99.90;;;;;;4987382;28;20089;-76
2021/12/10 00:59:07;;;;;;;7.30;1.98;;;2.50;99.90;;;;;;4990348;28;20038;-76
2021/12/10 01:01:33;;;;;;;3.40;1.75;;;2.50;99.90;;;;;;4984195;28;20026;-75
2021/12/10 01:04:10;;;;;;;3.30;1.58;;;2.50;99.90;;;;;;4985168;28;20137;-76
2021/12/10 01:06:39;;;;;;;8.13;1.98;;;2.40;99.90;;;;;;4986623;28;20014;-76
2021/12/10 01:09:15;;;;;;;3.10;2.35;;;2.40;99.90;;;;;;4985699;28;20018;-76
2021/12/10 01:11:55;;;;;;;7.35;3.17;;;2.30;99.90;;;;;;4992463;28;20022;-77
2021/12/10 01:14:57;;;;;;;7.72;2.10;;;2.30;99.90;;;;;;4999859;28;20023;-77
2021/12/10 01:28:31;;;;;;;12.32;3.25;;;2.10;99.90;;;;;;4996843;28;20077;-75
2021/12/10 01:30:56;;;;;;;8.65;2.22;;;2.00;99.90;;;;;;4996407;28;20022;-75
2021/12/10 01:33:22;;;;;;;3.80;1.75;;;2.00;99.90;;;;;;5001094;28;20031;-76
2021/12/10 01:35:53;;;;;;;5.45;2.88;;;2.00;99.90;;;;;;4994574;28;20022;-76
2021/12/10 01:38:21;;;;;;;8.40;4.03;;;2.00;99.90;;;;;;4988957;28;20026;-76
2021/12/10 01:40:49;;;;;;;6.68;2.00;;;1.90;99.90;;;;;;4989852;28;20054;-76
2021/12/10 01:43:23;;;;;;;3.20;1.70;;;1.90;99.90;;;;;;4985591;28;20402;-76
2021/12/10 01:45:52;;;;;;;5.47;2.30;;;1.80;99.90;;;;;;4987539;28;20015;-76
2021/12/10 01:48:26;;;;;;;3.60;2.00;;;1.80;99.90;;;;;;4984998;28;20257;-76
2021/12/10 01:50:53;;;;;;;9.90;2.95;;;1.80;99.90;;;;;;4988396;28;20605;-77
2021/12/10 01:53:22;;;;;;;5.03;1.67;;;1.70;99.90;;;;;;4983398;28;20054;-76
2021/12/10 01:55:50;;;;;;;4.68;2.30;;;1.70;99.90;;;;;;4987616;28;20019;-77
2021/12/10 01:58:19;;;;;;;3.90;1.48;;;1.80;99.90;;;;;;4983051;28;20117;-76
2021/12/10 02:00:49;;;;;;;3.72;2.03;;;1.80;99.90;;;;;;4988654;28;20033;-79
2021/12/10 02:03:15;;;;;;;4.03;1.50;;;1.80;99.90;;;;;;4983950;28;20053;-79
2021/12/10 02:05:41;;;;;;;7.45;2.10;;;1.80;99.90;;;;;;4978848;28;20390;-81
2021/12/10 02:08:08;;;;;;;5.65;1.95;;;1.80;99.90;;;;;;4983297;28;20030;-80
2021/12/10 02:10:34;;;;;;;5.43;1.98;;;1.70;99.90;;;;;;4979734;28;20019;-79
2021/12/10 02:13:02;;;;;;;3.42;1.85;;;1.80;99.90;;;;;;4984813;28;20025;-79
2021/12/10 02:15:29;;;;;;;6.20;2.08;;;1.80;99.90;;;;;;4982938;28;20026;-80
2021/12/10 02:17:57;;;;;;;5.30;1.65;;;1.70;99.90;;;;;;4981111;28;20030;-80
2021/12/10 02:20:31;;;;;;;4.22;1.20;;;1.70;99.90;;;;;;4992136;28;20390;-80
2021/12/10 02:22:57;;;;;;;6.70;1.83;;;1.60;99.90;;;;;;4985789;28;20014;-78
2021/12/10 02:25:26;;;;;;;7.93;1.92;;;1.60;99.90;;;;;;4991648;28;20122;-79
2021/12/10 02:27:52;;;;;;;3.65;1.60;;;1.60;99.90;;;;;;4984159;28;20389;-80
2021/12/10 02:30:20;;;;;;;6.57;2.10;;;1.60;99.90;;;;;;4988953;28;20485;-80
2021/12/10 02:32:46;;;;;;;6.75;1.55;;;1.60;99.90;;;;;;4988153;28;20019;-80
2021/12/10 02:35:14;;;;;;;5.93;2.17;;;1.60;99.90;;;;;;4990794;28;20031;-79
2021/12/10 02:37:42;;;;;;;2.33;1.40;;;1.60;99.90;;;;;;4987537;28;20474;-80
2021/12/10 02:40:10;;;;;;;4.80;2.40;;;1.50;99.90;;;;;;4993282;28;20073;-79
2021/12/10 02:42:37;;;;;;;5.93;2.20;;;1.50;99.90;;;;;;4995859;28;20022;-80
2021/12/10 02:45:08;;;;;;;6.30;1.50;;;1.50;99.90;;;;;;4995470;28;20347;-80
2021/12/10 02:47:34;;;;;;;4.55;1.33;;;1.50;99.90;;;;;;4986789;28;20113;-79
2021/12/10 02:50:00;;;;;;;7.45;1.70;;;1.50;99.90;;;;;;4988694;28;20105;-78
2021/12/10 02:52:27;;;;;;;5.88;1.67;;;1.40;99.90;;;;;;4991362;28;20022;-80
2021/12/10 02:54:53;;;;;;;5.15;1.25;;;1.30;99.90;;;;;;4987232;28;20030;-80
2021/12/10 02:57:20;;;;;;;6.32;1.55;;;1.40;99.90;;;;;;4988173;28;20027;-80
2021/12/10 02:59:46;;;;;;;5.55;1.50;;;1.40;99.90;;;;;;5001793;28;20033;-80
2021/12/10 03:02:15;;;;;;;2.55;1.40;;;1.50;99.90;;;;;;5013084;28;20073;-80
2021/12/10 03:04:42;;;;;;;5.10;1.55;;;1.40;99.90;;;;;;5005498;28;20025;-78
2021/12/10 03:07:13;;;;;;;5.43;1.52;;;1.40;99.90;;;;;;5004414;28;20085;-82
2021/12/10 03:09:42;;;;;;;5.88;1.38;;;1.50;99.90;;;;;;4993194;28;20037;-80
2021/12/10 03:12:09;;;;;;;5.57;1.95;;;1.50;99.90;;;;;;4999912;28;20046;-81
2021/12/10 03:14:38;;;;;;;3.05;1.50;;;1.50;99.90;;;;;;4984680;28;20113;-81
2021/12/10 03:17:09;;;;;;;4.75;1.50;;;1.40;99.90;;;;;;4986449;28;20449;-80
2021/12/10 03:19:36;;;;;;;5.30;1.63;;;1.40;99.90;;;;;;4987201;28;20522;-80
2021/12/10 03:22:03;;;;;;;6.22;1.40;;;1.40;99.90;;;;;;4990602;28;20105;-80
2021/12/10 03:24:29;;;;;;;2.05;1.35;;;1.50;99.90;;;;;;4981445;28;20015;-80
2021/12/10 03:26:57;;;;;;;6.43;2.20;;;1.50;99.90;;;;;;4989713;28;20076;-80
2021/12/10 03:29:25;;;;;;;8.63;2.30;;;1.40;99.90;;;;;;4981027;28;20027;-80
2021/12/10 03:31:54;;;;;;;4.85;1.70;;;1.40;99.90;;;;;;4979596;28;20449;-80
2021/12/10 03:34:20;;;;;;;8.57;1.55;;;1.40;99.90;;;;;;4980572;28;20034;-80
2021/12/10 03:36:49;;;;;;;5.18;1.77;;;1.40;99.90;;;;;;4992996;28;20019;-80
2021/12/10 03:39:17;;;;;;;4.18;1.58;;;1.30;99.90;;;;;;4985234;28;20038;-79
2021/12/10 03:41:42;;;;;;;4.00;1.80;;;1.30;99.90;;;;;;4988388;28;20026;-80
2021/12/10 03:44:09;;;;;;;2.35;1.45;;;1.40;99.90;;;;;;4982062;28;20077;-79
2021/12/10 03:46:35;;;;;;;4.00;1.48;;;1.50;99.90;;;;;;4980851;28;20019;-79
2021/12/10 03:49:03;;;;;;;6.40;1.73;;;1.30;99.90;;;;;;4983332;28;20483;-80
2021/12/10 03:51:30;;;;;;;3.67;1.63;;;1.30;99.90;;;;;;4979146;28;20474;-79
2021/12/10 03:53:56;;;;;;;2.58;1.50;;;1.40;99.90;;;;;;4985803;28;20053;-81
2021/12/10 03:56:24;;;;;;;7.50;1.85;;;1.60;99.90;;;;;;4993623;28;20103;-79
2021/12/10 03:58:50;;;;;;;4.53;1.95;;;1.70;99.90;;;;;;4991785;28;20033;-80
2021/12/10 04:01:21;;;;;;;4.68;1.52;;;1.90;99.90;;;;;;4982245;28;20100;-79
2021/12/10 04:03:49;;;;;;;4.30;1.65;;;1.90;99.90;;;;;;4991863;28;20490;-80
2021/12/10 04:06:15;;;;;;;3.50;1.80;;;1.90;99.90;;;;;;4978713;28;20023;-79
2021/12/10 04:08:41;;;;;;;5.43;1.92;;;1.90;99.90;;;;;;4986224;28;20045;-79
2021/12/10 04:11:08;;;;;;;4.50;2.53;;;1.80;99.90;;;;;;4979917;28;20124;-78
2021/12/10 04:13:35;;;;;;;5.30;2.25;;;1.70;99.90;;;;;;4982260;28;20023;-80
2021/12/10 04:16:03;;;;;;;4.88;2.22;;;1.70;99.90;;;;;;4979638;28;20018;-78
2021/12/10 04:18:29;;;;;;;3.75;2.20;;;1.40;99.90;;;;;;4980658;28;20741;-80
2021/12/10 04:20:54;;;;;;;4.53;2.70;;;1.50;99.90;;;;;;4984770;28;20034;-80
2021/12/10 04:23:21;;;;;;;6.13;2.55;;;1.50;99.90;;;;;;4987370;28;20520;-79
2021/12/10 04:25:47;;;;;;;7.60;2.78;;;1.60;99.90;;;;;;4985175;28;20023;-79
2021/12/10 04:28:16;;;;;;;7.30;2.75;;;1.60;99.90;;;;;;4994181;28;20022;-80
2021/12/10 04:30:45;;;;;;;7.43;3.15;;;1.50;99.90;;;;;;4990978;28;20030;-79
2021/12/10 04:33:21;;;;;;;4.97;2.53;;;1.50;99.90;;;;;;4984507;28;20029;-80
2021/12/10 04:35:48;;;;;;;6.50;2.55;;;1.30;99.90;;;;;;4982244;28;20022;-80
2021/12/10 04:38:15;;;;;;;5.20;2.45;;;1.10;99.90;;;;;;4983017;28;20072;-79
2021/12/10 04:40:42;;;;;;;5.38;3.03;;;1.00;99.90;;;;;;4993746;28;20094;-80
2021/12/10 04:43:08;;;;;;;2.90;1.90;;;0.90;99.90;;;;;;5012668;28;20040;-80
2021/12/10 04:45:33;;;;;;;4.47;2.25;;;0.70;99.90;;;;;;5026475;28;20027;-81
2021/12/10 04:47:59;;;;;;;4.00;2.40;;;0.70;99.90;;;;;;4989724;28;20030;-78
2021/12/10 04:50:27;;;;;;;5.63;2.92;;;0.70;99.90;;;;;;4988355;28;20483;-80
2021/12/10 04:52:54;;;;;;;5.85;2.70;;;0.60;99.90;;;;;;4981378;28;20105;-78
2021/12/10 04:55:20;;;;;;;6.30;2.65;;;0.50;99.90;;;;;;4983121;28;20505;-80
2021/12/10 04:57:46;;;;;;;6.53;3.03;;;0.40;99.90;;;;;;4981006;28;20027;-79
2021/12/10 05:00:19;;;;;;;7.85;3.45;;;0.40;99.90;;;;;;4982598;28;20058;-80
2021/12/10 05:02:45;;;;;;;3.17;2.78;;;0.30;99.90;;;;;;4994782;28;20035;-79
2021/12/10 05:05:11;;;;;;;11.10;3.58;;;0.30;99.90;;;;;;4983205;28;20023;-80
2021/12/10 05:07:38;;;;;;;5.38;3.85;;;0.40;99.90;;;;;;4991217;28;20347;-79
2021/12/10 05:10:08;;;;;;;7.40;4.05;;;0.30;99.90;;;;;;4987086;28;20494;-79
2021/12/10 05:12:34;;;;;;;8.43;3.83;;;0.30;99.90;;;;;;4979253;28;20079;-80
2021/12/10 05:15:01;;;;;;;9.80;4.10;;;0.30;99.90;;;;;;4978969;28;20062;-80
2021/12/10 05:17:31;;;;;;;5.55;3.45;;;0.30;99.90;;;;;;4979999;28;20047;-81
2021/12/10 05:19:59;;;;;;;5.80;4.20;;;0.30;99.90;;;;;;4990019;28;20169;-80
2021/12/10 05:22:25;;;;;;;7.05;4.20;;;0.20;99.90;;;;;;4989065;28;20084;-81
2021/12/10 05:24:51;;;;;;;7.03;3.67;;;0.20;99.90;;;;;;4975641;28;20112;-80
2021/12/10 05:27:16;;;;;;;8.07;4.10;;;0.20;99.90;;;;;;4984778;28;20098;-80
2021/12/10 05:29:42;;;;;;;6.97;4.72;;;0.30;99.90;;;;;;4985157;28;20026;-79
2021/12/10 05:32:08;;;;;;;9.80;4.63;;;0.30;99.90;;;;;;4983570;28;20482;-80
2021/12/10 05:34:36;;;;;;;6.53;4.43;;;0.40;99.90;;;;;;4980799;28;20624;-79
2021/12/10 05:37:02;;;;;;;11.77;5.07;;;0.40;99.90;;;;;;4982918;28;20022;-80
2021/12/10 05:39:28;;;;;;;7.97;4.95;;;0.40;99.90;;;;;;4981294;28;20029;-80
2021/12/10 05:41:54;;;;;;;10.93;5.50;;;0.50;99.90;;;;;;4980577;28;20030;-81
2021/12/10 05:44:20;;;;;;;8.48;4.70;;;0.50;99.90;;;;;;4978122;28;20528;-80
2021/12/10 05:46:45;;;;;;;9.95;6.05;;;0.50;99.90;;;;;;4981799;28;20027;-78
2021/12/10 05:49:11;;;;;;;7.32;4.95;;;0.40;99.90;;;;;;4980304;28;20429;-79
2021/12/10 05:51:37;;;;;;;12.52;5.75;;;0.40;99.90;;;;;;4986788;28;20426;-79
2021/12/10 05:54:04;;;;;;;13.90;6.65;;;0.40;99.90;;;;;;4986330;28;20041;-79
2021/12/10 05:56:30;;;;;;;10.65;4.75;;;0.40;99.90;;;;;;4982829;28;20030;-79
2021/12/10 05:58:56;;;;;;;11.25;5.40;;;0.30;99.90;;;;;;4983777;28;20033;-81
2021/12/10 06:01:22;;;;;;;8.70;5.95;;;0.30;99.90;;;;;;4982860;28;20109;-80
2021/12/10 06:03:52;;;;;;;10.48;5.18;;;0.30;99.90;;;;;;4999977;28;20701;-80
2021/12/10 06:06:25;;;;;;;14.80;7.65;;;0.30;99.90;;;;;;4984583;28;20014;-79
2021/12/10 06:08:50;;;;;;;10.50;5.68;;;0.30;99.90;;;;;;4980497;28;21947;-80
2021/12/10 06:11:17;;;;;;;9.35;5.35;;;0.20;99.90;;;;;;4983784;28;20042;-80
2021/12/10 06:13:44;;;;;;;8.77;5.30;;;0.30;99.90;;;;;;4986639;28;20022;-78
2021/12/10 06:16:10;;;;;;;8.70;5.35;;;0.20;99.90;;;;;;4989823;28;20030;-78
2021/12/10 06:18:35;;;;;;;8.55;5.57;;;0.30;99.90;;;;;;4985776;28;20381;-79
2021/12/10 06:21:01;;;;;;;9.68;5.15;;;0.40;99.90;;;;;;4991338;28;20018;-79
2021/12/10 06:23:27;;;;;;;7.63;5.07;;;0.80;99.90;;;;;;4988020;28;20098;-79
2021/12/10 06:25:52;;;;;;;11.48;6.15;;;1.00;99.90;;;;;;4991082;28;20019;-80
2021/12/10 06:28:18;;;;;;;10.63;5.75;;;1.10;99.90;;;;;;4984766;28;20086;-80
2021/12/10 06:30:46;;;;;;;6.90;5.18;;;1.00;99.90;;;;;;4985685;28;20022;-81
2021/12/10 06:33:14;;;;;;;9.90;5.55;;;0.90;99.90;;;;;;4983303;28;20029;-80
2021/12/10 06:35:42;;;;;;;11.20;6.13;;;0.90;99.90;;;;;;4987828;28;20022;-80
2021/12/10 06:38:08;;;;;;;9.40;6.43;;;0.90;99.90;;;;;;5006565;28;21617;-78
2021/12/10 06:40:35;;;;;;;10.98;6.38;;;1.00;99.90;;;;;;4985056;28;20023;-80
2021/12/10 06:43:02;;;;;;;8.50;6.13;;;1.10;99.90;;;;;;4985651;28;20124;-80
2021/12/10 06:45:29;;;;;;;10.30;6.60;;;1.10;99.90;;;;;;4988305;28;20072;-79
2021/12/10 06:47:58;;;;;;;13.30;6.78;;;1.20;99.90;;;;;;4988998;28;20033;-79
2021/12/10 06:50:27;;;;;;;13.32;6.68;;;1.20;99.90;;;;;;4987894;28;20022;-78
2021/12/10 06:52:53;;;;;;;9.15;6.00;;;1.30;99.90;;;;;;4982355;28;20034;-80
2021/12/10 06:55:19;;;;;;;10.75;6.97;;;1.30;99.90;;;;;;4988841;28;20054;-79
2021/12/10 06:57:45;;;;;;;9.55;5.43;;;1.30;99.90;;;;;;4990091;28;20078;-79
2021/12/10 07:00:17;;;;;;;11.02;6.60;;;1.20;99.90;;;;;;4996603;28;20033;-79
2021/12/10 07:02:44;;;;;;;9.25;6.18;;;1.30;99.90;;;;;;4989533;28;20026;-79
2021/12/10 07:05:10;;;;;;;7.78;6.43;;;1.30;99.90;;;;;;4988199;28;20027;-79
2021/12/10 07:07:38;;;;;;;10.32;6.43;;;1.20;99.90;;;;;;4989847;28;20030;-80
2021/12/10 07:10:05;;;;;;;12.63;6.15;;;1.30;99.90;;;;;;4988750;28;20041;-80
2021/12/10 07:12:33;;;;;;;11.43;6.55;;;1.30;99.90;;;;;;4990172;28;20033;-80
2021/12/10 07:15:01;;;;;;;12.10;5.95;;;1.30;99.90;;;;;;5003004;28;20027;-79
2021/12/10 07:17:27;;;;;;;10.65;7.13;;;1.40;99.90;;;;;;4989167;28;20494;-80
2021/12/10 07:19:52;;;;;;;10.68;7.10;;;1.50;99.90;;;;;;4986149;28;20053;-79
2021/12/10 07:22:18;;;;;;;13.57;6.78;;;1.40;99.90;;;;;;4988753;28;20030;-80
2021/12/10 07:24:43;;;;;;;10.77;6.40;;;1.50;99.90;;;;;;4985503;28;20062;-82
2021/12/10 07:27:11;;;;;;;9.68;6.13;;;1.40;99.90;;;;;;4986850;28;20026;-81
2021/12/10 07:29:38;;;;;;;9.38;6.75;;;1.40;99.90;;;;;;4982520;28;20022;-81
2021/12/10 07:32:04;;;;;;;16.25;9.02;;;1.50;99.90;;;;;;4988117;28;20063;-81
2021/12/10 07:34:30;;;;;;;9.35;6.40;;;1.50;99.90;;;;;;4986573;28;20084;-82
2021/12/10 07:36:56;;;;;;;10.43;6.80;;;1.50;99.90;;;;;;4985284;28;20030;-81
2021/12/10 07:39:21;;;;;;;9.13;6.40;;;1.50;99.90;;;;;;4990893;28;20018;-82
2021/12/10 07:41:47;;;;;;;11.35;8.20;;;1.60;99.90;;;;;;4985866;28;20030;-82
2021/12/10 07:44:13;;;;;;;11.25;7.38;;;1.60;99.90;;;;;;5009850;28;20041;-82
2021/12/10 07:46:40;;;;;;;10.68;7.35;;;1.50;99.90;;;;;;5004982;28;20023;-83
2021/12/10 07:49:13;;;;;;;11.85;6.93;;;1.50;99.90;;;;;;5002992;28;20042;-83
2021/12/10 07:51:39;;;;;;;8.88;6.55;;;1.60;99.90;;;;;;5000911;28;20027;-81
2021/12/10 07:54:05;;;;;;;9.70;6.38;;;1.60;99.90;;;;;;4990463;28;20037;-82
2021/12/10 07:56:32;;;;;;;11.07;6.78;;;1.80;99.90;;;;;;4983589;28;20074;-79
2021/12/10 07:58:58;;;;;;;10.10;6.55;;;1.90;99.90;;;;;;4984248;28;20027;-80
2021/12/10 08:01:27;;;;;;;9.05;6.82;;;1.90;99.90;;;;;;4984753;28;20027;-82
2021/12/10 08:03:54;;;;;;;10.60;6.55;;;1.90;99.90;;;;;;4981117;28;20059;-81
2021/12/10 08:06:21;;;;;;;9.55;5.75;;;1.80;99.90;;;;;;4990678;28;20097;-82
2021/12/10 08:08:48;;;;;;;11.85;6.10;;;1.70;99.90;;;;;;4978593;28;20026;-82
2021/12/10 08:11:14;;;;;;;11.32;7.90;;;1.60;99.90;;;;;;4981923;28;20030;-82
2021/12/10 08:13:40;;;;;;;8.63;5.80;;;1.50;99.90;;;;;;4978531;28;20027;-82
2021/12/10 08:16:06;;;;;;;8.90;4.93;;;1.60;99.90;;;;;;4980561;28;20041;-81
2021/12/10 08:18:32;;;;;;;11.07;6.00;;;1.80;99.90;;;;;;4985346;28;20018;-83
2021/12/10 08:20:58;;;;;;;11.05;6.47;;;1.80;99.90;;;;;;4983690;28;20393;-81
2021/12/10 08:23:24;;;;;;;11.55;6.60;;;1.80;99.90;;;;;;4985722;28;20041;-82
2021/12/10 08:25:49;;;;;;;7.50;5.47;;;1.80;99.90;;;;;;4992495;28;20015;-82
2021/12/10 08:28:18;;;;;;;11.30;6.30;;;1.80;99.90;;;;;;4987395;28;20026;-82
2021/12/10 08:30:44;;;;;;;6.50;5.32;;;1.80;99.90;;;;;;4989528;28;20030;-82
2021/12/10 08:33:13;;;;;;;9.48;5.72;;;1.90;99.90;;;;;;4988845;28;20445;-82
2021/12/10 08:35:43;;;;;;;12.75;6.32;;;1.90;99.90;;;;;;4981458;28;20137;-82
2021/12/10 08:38:09;;;;;;;11.00;5.82;;;1.90;99.90;;;;;;4988628;28;20031;-81
2021/12/10 08:40:42;;;;;;;13.30;6.38;;;1.90;99.90;;;;;;4982263;28;20022;-80
2021/12/10 08:43:07;;;;;;;7.28;5.40;;;1.90;99.90;;;;;;4994248;28;20494;-83
2021/12/10 08:45:35;;;;;;;10.70;5.95;;;2.00;99.90;;;;;;4981284;28;20081;-81
2021/12/10 08:48:02;;;;;;;7.10;5.30;;;2.00;99.90;;;;;;4996112;28;20046;-83
2021/12/10 08:50:28;;;;;;;10.68;6.88;;;2.00;99.90;;;;;;4991716;28;20029;-81
2021/12/10 08:52:58;;;;;;;9.77;6.25;;;2.10;99.90;;;;;;4981473;28;20035;-82
2021/12/10 08:55:28;;;;;;;8.88;6.85;;;2.20;99.90;;;;;;4991656;28;20078;-83
2021/12/10 08:57:54;;;;;;;8.85;5.68;;;2.30;99.90;;;;;;4990549;28;20418;-80
2021/12/10 09:00:20;;;;;;;7.13;5.25;;;2.30;99.90;;;;;;4990434;28;20077;-81
2021/12/10 09:02:49;;;;;;;10.27;5.55;;;2.40;99.90;;;;;;4985171;28;20045;-81
2021/12/10 09:05:15;;;;;;;7.30;4.80;;;2.50;99.90;;;;;;4981986;28;20028;-82
2021/12/10 09:07:43;;;;;;;7.97;5.00;;;2.60;99.90;;;;;;4981805;28;20075;-81
2021/12/10 09:10:09;;;;;;;11.70;5.85;;;2.60;99.90;;;;;;4993756;28;20019;-81
2021/12/10 09:12:37;;;;;;;8.38;5.45;;;2.70;99.90;;;;;;4977914;28;20106;-81
2021/12/10 09:15:06;;;;;;;5.65;4.40;;;2.70;99.90;;;;;;4979652;28;20031;-81
2021/12/10 09:17:33;;;;;;;9.43;5.35;;;2.70;99.90;;;;;;4992891;28;20025;-81
2021/12/10 09:20:03;;;;;;;13.00;4.78;;;2.80;99.90;;;;;;4996226;28;20058;-84
2021/12/10 09:22:29;;;;;;;9.93;4.38;;;2.80;99.90;;;;;;5014329;28;20022;-80
2021/12/10 09:24:56;;;;;;;7.65;5.07;;;2.80;99.90;;;;;;5016945;28;20054;-82
2021/12/10 09:27:23;;;;;;;7.60;4.45;;;2.90;99.90;;;;;;5010180;28;20070;-81
2021/12/10 09:29:52;;;;;;;6.28;4.38;;;3.00;99.90;;;;;;5013309;28;20030;-80
2021/12/10 09:32:20;;;;;;;14.27;4.47;;;3.10;99.90;;;;;;5005911;28;20034;-80
2021/12/10 09:34:48;;;;;;;6.32;4.97;;;3.10;99.90;;;;;;4995557;28;20037;-80
2021/12/10 09:37:15;;;;;;;6.78;4.78;;;3.10;99.90;;;;;;4998151;28;20113;-82
2021/12/10 09:39:43;;;;;;;11.38;4.28;;;3.40;99.90;;;;;;4994223;28;20026;-82
2021/12/10 09:42:09;;;;;;;8.63;4.88;;;3.50;99.90;;;;;;4995481;28;20114;-82
2021/12/10 09:44:36;;;;;;;7.25;4.88;;;3.70;99.90;;;;;;4997362;28;20018;-81
2021/12/10 09:47:04;;;;;;;5.88;4.60;;;3.70;99.90;;;;;;4993457;28;20061;-80
2021/12/10 09:49:30;;;;;;;10.77;4.55;;;3.80;99.90;;;;;;4997219;28;20419;-82
2021/12/10 09:52:00;;;;;;;7.43;5.05;;;3.70;99.90;;;;;;4992725;28;20030;-82
2021/12/10 09:54:28;;;;;;;6.72;3.80;;;3.60;99.90;;;;;;4996648;28;20502;-81
2021/12/10 09:57:04;;;;;;;8.68;5.00;;;3.80;99.90;;;;;;4999267;28;20049;-82
2021/12/10 09:59:30;;;;;;;13.55;5.45;;;3.50;99.90;;;;;;4996754;28;20041;-84
2021/12/10 10:01:57;;;;;;;14.60;5.30;;;3.50;99.90;;;;;;4988816;28;20069;-81
2021/12/10 10:04:27;;;;;;;8.77;4.57;;;3.60;99.90;;;;;;4987959;28;20101;-83
2021/12/10 10:06:59;;;;;;;9.20;4.22;;;3.60;99.90;;;;;;4991350;28;20030;-82
2021/12/10 10:09:26;;;;;;;7.63;4.50;;;3.50;99.90;;;;;;4989367;28;20026;-83
2021/12/10 10:12:03;;;;;;;10.85;4.72;;;3.50;99.90;;;;;;4986082;28;20018;-82
2021/12/10 10:14:29;;;;;;;7.95;4.15;;;3.70;99.90;;;;;;5005591;28;20418;-82
2021/12/10 10:16:55;;;;;;;6.30;3.70;;;3.80;99.90;;;;;;4995882;28;20027;-82
2021/12/10 10:19:22;;;;;;;8.27;3.85;;;3.80;99.90;;;;;;4998203;28;20026;-81
2021/12/10 10:21:53;;;;;;;4.57;4.10;;;4.20;99.90;;;;;;4998827;28;20019;-82
2021/12/10 10:24:20;;;;;;;5.85;4.43;;;4.30;99.90;;;;;;4988033;28;20027;-82
2021/12/10 10:26:53;;;;;;;7.90;4.28;;;4.50;99.90;;;;;;4990908;28;20020;-83
2021/12/10 10:29:23;;;;;;;7.45;4.40;;;4.60;99.90;;;;;;5017445;28;20034;-81
2021/12/10 10:31:55;;;;;;;7.30;4.07;;;4.60;99.90;;;;;;4988552;28;20359;-82
2021/12/10 10:34:22;;;;;;;10.43;4.13;;;4.50;99.90;;;;;;4996828;28;20073;-81
2021/12/10 10:36:49;;;;;;;8.18;4.28;;;4.20;99.90;;;;;;4999351;28;20029;-83
2021/12/10 10:39:19;;;;;;;9.88;4.72;;;4.20;99.90;;;;;;4994866;28;20034;-81
2021/12/10 10:41:48;;;;;;;6.70;4.32;;;4.20;99.90;;;;;;5001112;28;20030;-81
2021/12/10 10:44:17;;;;;;;11.13;4.95;;;4.30;99.90;;;;;;4990945;28;20045;-74
2021/12/10 10:46:44;;;;;;;9.75;4.65;;;4.20;99.90;;;;;;4999272;28;20504;-77
2021/12/10 10:49:28;;;;;;;9.18;4.25;;;4.10;99.90;;;;;;4993388;28;20037;-78
2021/12/10 10:51:56;;;;;;;9.07;4.22;;;4.40;99.90;;;;;;4985402;28;20113;-77
2021/12/10 10:54:30;;;;;;;10.75;4.35;;;4.50;99.90;;;;;;4988262;28;20038;-77
2021/12/10 10:56:55;;;;;;;8.88;5.55;;;4.60;99.90;;;;;;4981397;28;20029;-77
2021/12/10 10:59:26;;;;;;;7.55;4.55;;;4.70;99.90;;;;;;4990318;28;20105;-78
2021/12/10 11:02:03;;;;;;;7.55;4.38;;;4.80;99.90;;;;;;4991263;28;20482;-78
2021/12/10 11:04:32;;;;;;;8.10;4.93;;;4.80;99.90;;;;;;4986741;28;20137;-78
2021/12/10 11:07:23;;;;;;;10.88;5.53;;;4.70;99.90;;;;;;4987382;28;20022;-77
2021/12/10 11:09:52;;;;;;;11.63;6.10;;;4.60;99.90;;;;;;4983405;28;20081;-78
2021/12/10 11:12:31;;;;;;;10.15;4.95;;;4.70;99.90;;;;;;4978828;28;20027;-77
2021/12/10 11:14:59;;;;;;;11.80;4.85;;;4.70;99.90;;;;;;4985103;28;20375;-77
2021/12/10 11:17:35;;;;;;;12.00;4.47;;;4.50;99.90;;;;;;4978872;28;20030;-78
2021/12/10 11:20:04;;;;;;;6.35;4.40;;;4.50;99.90;;;;;;4978772;28;20042;-78
2021/12/10 11:22:31;;;;;;;15.68;9.68;;;4.40;99.90;;;;;;4989065;28;20430;-77
2021/12/10 11:25:06;;;;;;;5.20;3.42;;;4.70;99.90;;;;;;4983882;28;20139;-78
2021/12/10 11:27:37;;;;;;;4.25;2.10;;;4.90;99.90;;;;;;4990598;28;20490;-77
2021/12/10 11:30:03;;;;;;;4.40;2.78;;;4.80;99.90;;;;;;4978337;28;20157;-77
2021/12/10 11:32:48;;;;;;;7.20;1.77;;;4.80;99.90;;;;;;4989823;28;20051;-78
2021/12/10 11:35:42;;;;;;;3.28;1.65;;;5.00;99.90;;;;;;4991603;28;20505;-78
2021/12/10 11:38:22;;;;;;;7.97;2.92;;;4.90;99.90;;;;;;4978718;28;20505;-78
2021/12/10 11:40:58;;;;;;;2.10;1.15;;;4.80;99.90;;;;;;4981223;28;20054;-78
2021/12/10 11:43:45;;;;;;;1.73;1.17;;;4.80;99.90;;;;;;4976124;28;20033;-77
2021/12/10 11:49:03;;;;;;;1.75;0.65;;;4.70;99.90;;;;;;4975166;28;20030;-78
2021/12/10 11:51:54;;;;;;;2.17;0.93;;;4.80;99.90;;;;;;4994829;28;20022;-76
2021/12/10 11:54:20;;;;;;;2.70;1.27;;;4.50;99.90;;;;;;4985933;28;20498;-77
2021/12/10 11:56:50;;;;;;;1.88;0.80;;;4.40;99.90;;;;;;4984802;28;20018;-76
2021/12/10 11:59:19;;;;;;;1.50;0.50;;;4.10;99.90;;;;;;4988918;28;20371;-76
2021/12/10 12:01:44;;;;;;;3.13;1.25;;;4.10;99.90;;;;;;4976197;28;20034;-77
2021/12/10 12:04:15;;;;;;;1.13;0.70;;;4.20;99.90;;;;;;5011150;28;20068;-77
2021/12/10 12:06:41;;;;;;;;;;;3.80;99.90;;;;;;4988362;28;20030;-77
2021/12/10 12:09:07;;;;;;;1.13;0.90;;;3.50;99.90;;;;;;4984970;28;19909;-77
2021/12/10 12:11:32;;;;;;;1.85;1.00;;;3.30;99.90;;;;;;4987241;28;20475;-78
2021/12/10 12:14:00;;;;;;;3.13;0.80;;;3.10;99.90;;;;;;5004732;28;20026;-77
2021/12/10 12:16:27;;;;;;;1.50;0.90;;;3.00;99.90;;;;;;4987127;28;20151;-75
2021/12/10 12:18:58;;;;;;;1.40;0.98;;;3.10;99.90;;;;;;4987812;28;20015;-77
2021/12/10 12:27:06;;;;;;;2.30;1.38;;;3.20;99.90;;;;;;4988150;28;20042;-76
2021/12/10 12:29:41;;;;;;;2.17;1.42;;;2.90;99.90;;;;;;4980373;28;20107;-78
2021/12/10 12:32:14;;;;;;;2.67;1.30;;;2.70;99.90;;;;;;4976139;28;20557;-76
2021/12/10 12:34:40;;;;;;;3.65;1.20;;;2.80;99.90;;;;;;4973969;28;20035;-77
2021/12/10 12:37:09;;;;;;;2.25;1.38;;;2.70;99.90;;;;;;4981495;28;20073;-77
2021/12/10 12:39:39;;;;;;;1.75;1.27;;;2.70;99.90;;;;;;5003105;28;20529;-78
2021/12/10 12:42:16;;;;;;;2.58;1.48;;;2.80;99.90;;;;;;4975918;28;20031;-76
2021/12/10 12:44:42;;;;;;;2.95;1.60;;;3.20;99.90;;;;;;4996120;28;20033;-77
2021/12/10 12:47:30;;;;;;;1.70;1.38;;;3.30;99.90;;;;;;4981686;28;20022;-77
2021/12/10 12:50:11;;;;;;;2.65;1.40;;;3.50;99.90;;;;;;4983203;28;20022;-77
2021/12/10 12:52:49;;;;;;;2.15;1.60;;;3.40;99.90;;;;;;4979581;28;20106;-77
2021/12/10 12:55:55;;;;;;;4.25;1.75;;;3.40;99.90;;;;;;4976568;28;20033;-76
2021/12/10 12:58:35;;;;;;;2.58;1.98;;;3.50;99.90;;;;;;4981838;28;20504;-78
2021/12/10 13:01:06;;;;;;;1.90;1.67;;;3.30;99.90;;;;;;4988885;28;20066;-78
2021/12/10 13:03:43;;;;;;;3.72;2.03;;;3.50;99.90;;;;;;4991308;28;20050;-77
2021/12/10 13:06:27;;;;;;;5.15;1.95;;;3.50;99.90;;;;;;4991997;28;20048;-77
2021/12/10 13:09:07;;;;;;;2.40;2.20;;;3.40;99.90;;;;;;4985720;28;20049;-76
2021/12/10 13:12:01;;;;;;;2.55;1.70;;;3.40;99.90;;;;;;4995046;28;20080;-75
2021/12/10 13:14:35;;;;;;;2.63;2.08;;;3.70;99.90;;;;;;5001343;28;20023;-76
2021/12/10 13:17:12;;;;;;;3.65;1.85;;;3.60;99.90;;;;;;5001765;28;20138;-76
2021/12/10 13:19:37;;;;;;;3.25;1.77;;;3.60;99.90;;;;;;5000173;28;20018;-77
2021/12/10 13:22:13;;;;;;;2.17;1.67;;;3.60;99.90;;;;;;4986493;28;20022;-77
2021/12/10 13:24:41;;;;;;;2.35;1.48;;;3.50;99.90;;;;;;4989698;28;20027;-77
2021/12/10 13:27:08;;;;;;;4.47;2.15;;;3.40;99.90;;;;;;4996131;28;20034;-76